Time,TemperatureF,DewpointF,PressureIn,WindDirection,WindDirectionDegrees,WindSpeedMPH,WindSpeedGustMPH,Humidity,HourlyPrecipIn,Conditions,Clouds,dailyrainin,SoftwareType,DateUTC
2013-04-09 00:03:00,45.1,34.5,29.94,East,91,7.6,7.6,66,0.00,,---,0.00,VWS V14.01,2013-04-09 07:03:00,
2013-04-09 00:08:00,45.1,35.2,29.94,East,91,7.6,7.6,68,0.00,,---,0.00,VWS V14.01,2013-04-09 07:08:00,
2013-04-09 00:13:00,45.1,36.0,29.94,East,91,7.6,7.6,70,0.00,,---,0.00,VWS V14.01,2013-04-09 07:13:00,
2013-04-09 00:18:00,45.1,36.0,29.94,East,91,7.6,7.6,70,0.00,,---,0.00,VWS V14.01,2013-04-09 07:18:00,
2013-04-09 00:24:00,45.1,36.0,29.94,East,91,7.6,7.6,70,0.00,,---,0.00,VWS V14.01,2013-04-09 07:24:00,
2013-04-09 00:30:00,45.1,35.6,29.94,East,91,7.6,7.6,69,0.00,,---,0.00,VWS V14.01,2013-04-09 07:30:00,
2013-04-09 00:35:00,45.1,35.2,29.94,East,91,7.6,7.6,68,0.00,,---,0.00,VWS V14.01,2013-04-09 07:35:00,
2013-04-09 00:40:00,45.0,34.7,29.94,East,91,7.6,7.6,67,0.00,,---,0.00,VWS V14.01,2013-04-09 07:40:00,
2013-04-09 00:46:00,44.6,34.0,29.94,East,91,7.6,7.6,66,0.00,,---,0.00,VWS V14.01,2013-04-09 07:46:00,
2013-04-09 00:52:00,44.4,34.9,29.94,East,91,7.6,7.6,69,0.00,,---,0.00,VWS V14.01,2013-04-09 07:52:00,
2013-04-09 00:57:00,44.2,35.1,29.94,East,91,7.6,7.6,70,0.00,,---,0.00,VWS V14.01,2013-04-09 07:57:00,
2013-04-09 01:03:00,44.4,34.5,29.97,East,91,7.6,7.6,68,0.00,,---,0.00,VWS V14.01,2013-04-09 08:03:00,
2013-04-09 01:08:00,44.6,30.8,29.97,East,91,7.6,7.6,58,0.00,,---,0.00,VWS V14.01,2013-04-09 08:08:00,
2013-04-09 01:14:00,44.6,28.5,29.97,East,91,7.6,7.6,53,0.00,,---,0.00,VWS V14.01,2013-04-09 08:14:00,
2013-04-09 01:19:00,44.6,28.1,29.97,East,91,7.6,7.6,52,0.00,,---,0.00,VWS V14.01,2013-04-09 08:19:00,
2013-04-09 01:24:00,44.6,27.6,29.97,East,91,7.6,7.6,51,0.00,,---,0.00,VWS V14.01,2013-04-09 08:24:00,
2013-04-09 01:29:00,44.6,27.1,29.94,East,91,7.6,7.6,50,0.00,,---,0.00,VWS V14.01,2013-04-09 08:29:00,
2013-04-09 01:35:00,44.6,26.6,29.94,East,91,7.6,7.6,49,0.00,,---,0.00,VWS V14.01,2013-04-09 08:35:00,
2013-04-09 01:40:00,44.6,26.6,29.94,East,91,7.6,7.6,49,0.00,,---,0.00,VWS V14.01,2013-04-09 08:40:00,
2013-04-09 01:46:00,44.6,26.6,29.97,East,91,7.6,7.6,49,0.00,,---,0.00,VWS V14.01,2013-04-09 08:46:00,
2013-04-09 01:51:00,44.4,26.5,29.97,East,91,7.6,7.6,49,0.00,,---,0.00,VWS V14.01,2013-04-09 08:51:00,
2013-04-09 01:57:00,44.4,26.5,29.97,East,91,7.6,7.6,49,0.00,,---,0.00,VWS V14.01,2013-04-09 08:57:00,
2013-04-09 02:02:00,44.4,26.5,29.97,East,91,7.6,7.6,49,0.00,,---,0.00,VWS V14.01,2013-04-09 09:02:00,
2013-04-09 02:07:00,44.4,26.5,29.97,East,91,7.6,7.6,49,0.00,,---,0.00,VWS V14.01,2013-04-09 09:07:00,
2013-04-09 02:13:00,44.4,26.5,29.97,East,91,7.6,7.6,49,0.00,,---,0.00,VWS V14.01,2013-04-09 09:13:00,
2013-04-09 02:18:00,44.2,25.8,29.97,East,91,7.6,7.6,48,0.00,,---,0.00,VWS V14.01,2013-04-09 09:18:00,
2013-04-09 02:24:00,44.2,25.8,29.97,East,91,7.6,7.6,48,0.00,,---,0.00,VWS V14.01,2013-04-09 09:24:00,
2013-04-09 02:29:00,44.2,25.8,29.97,East,91,7.6,7.6,48,0.00,,---,0.00,VWS V14.01,2013-04-09 09:29:00,
2013-04-09 02:34:00,44.1,25.6,29.97,East,91,7.6,7.6,48,0.00,,---,0.00,VWS V14.01,2013-04-09 09:34:00,
2013-04-09 02:40:00,44.1,25.6,29.97,East,91,7.6,7.6,48,0.00,,---,0.00,VWS V14.01,2013-04-09 09:40:00,
2013-04-09 02:47:00,43.7,25.3,29.97,East,91,7.6,7.6,48,0.00,,---,0.00,VWS V14.01,2013-04-09 09:47:00,
2013-04-09 02:52:00,43.7,25.3,29.97,East,91,7.6,7.6,48,0.00,,---,0.00,VWS V14.01,2013-04-09 09:52:00,
2013-04-09 02:57:00,43.7,25.3,29.97,East,91,7.6,7.6,48,0.00,,---,0.00,VWS V14.01,2013-04-09 09:57:00,
2013-04-09 03:03:00,43.7,25.3,29.97,East,91,7.6,7.6,48,0.00,,---,0.00,VWS V14.01,2013-04-09 10:03:00,
2013-04-09 03:10:00,43.7,25.3,29.97,East,91,7.6,7.6,48,0.00,,---,0.00,VWS V14.01,2013-04-09 10:10:00,
2013-04-09 03:17:00,43.7,25.3,29.97,East,91,7.6,7.6,48,0.00,,---,0.00,VWS V14.01,2013-04-09 10:17:00,
2013-04-09 03:23:00,43.5,25.6,29.97,East,91,7.6,7.6,49,0.00,,---,0.00,VWS V14.01,2013-04-09 10:23:00,
2013-04-09 03:29:00,43.3,25.5,29.97,East,91,7.6,7.6,49,0.00,,---,0.00,VWS V14.01,2013-04-09 10:29:00,
2013-04-09 03:35:00,43.3,25.5,29.97,East,91,7.6,7.6,49,0.00,,---,0.00,VWS V14.01,2013-04-09 10:35:00,
2013-04-09 03:40:00,43.5,26.1,29.97,East,91,7.6,7.6,50,0.00,,---,0.00,VWS V14.01,2013-04-09 10:40:00,
2013-04-09 03:46:00,43.5,26.1,29.97,East,91,7.6,7.6,50,0.00,,---,0.00,VWS V14.01,2013-04-09 10:46:00,
2013-04-09 03:51:00,43.5,26.1,29.97,East,91,7.6,7.6,50,0.00,,---,0.00,VWS V14.01,2013-04-09 10:51:00,
2013-04-09 03:57:00,43.3,26.0,29.97,East,91,7.6,7.6,50,0.00,,---,0.00,VWS V14.01,2013-04-09 10:57:00,
2013-04-09 04:03:00,43.0,26.1,29.97,East,91,7.6,7.6,51,0.00,,---,0.00,VWS V14.01,2013-04-09 11:03:00,
2013-04-09 04:08:00,43.0,26.6,29.97,East,91,7.6,7.6,52,0.00,,---,0.00,VWS V14.01,2013-04-09 11:08:00,
2013-04-09 04:13:00,42.8,26.4,29.97,East,91,7.6,7.6,52,0.00,,---,0.00,VWS V14.01,2013-04-09 11:13:00,
2013-04-09 04:19:00,42.8,26.9,29.97,East,91,7.6,7.6,53,0.00,,---,0.00,VWS V14.01,2013-04-09 11:19:00,
2013-04-09 04:25:00,43.0,27.5,29.97,East,91,7.6,7.6,54,0.00,,---,0.00,VWS V14.01,2013-04-09 11:25:00,
2013-04-09 04:30:00,43.2,27.2,30.00,East,91,7.6,7.6,53,0.00,,---,0.00,VWS V14.01,2013-04-09 11:30:00,
2013-04-09 04:35:00,43.3,27.4,30.00,East,91,7.6,7.6,53,0.00,,---,0.00,VWS V14.01,2013-04-09 11:35:00,
2013-04-09 04:41:00,43.5,27.1,30.00,East,91,7.6,7.6,52,0.00,,---,0.00,VWS V14.01,2013-04-09 11:41:00,
2013-04-09 04:46:00,43.7,26.8,30.00,East,91,7.6,7.6,51,0.00,,---,0.00,VWS V14.01,2013-04-09 11:46:00,
2013-04-09 04:52:00,43.7,26.8,30.00,East,91,7.6,7.6,51,0.00,,---,0.00,VWS V14.01,2013-04-09 11:52:00,
2013-04-09 04:58:00,43.7,26.8,30.00,East,91,7.6,7.6,51,0.00,,---,0.00,VWS V14.01,2013-04-09 11:58:00,
2013-04-09 05:03:00,43.7,26.8,29.97,East,91,7.6,7.6,51,0.00,,---,0.00,VWS V14.01,2013-04-09 12:03:00,
2013-04-09 05:09:00,43.7,26.3,29.97,East,91,7.6,7.6,50,0.00,,---,0.00,VWS V14.01,2013-04-09 12:09:00,
2013-04-09 05:15:00,43.9,26.5,29.97,East,91,7.6,7.6,50,0.00,,---,0.00,VWS V14.01,2013-04-09 12:15:00,
2013-04-09 05:21:00,43.9,26.0,29.97,East,91,7.6,7.6,49,0.00,,---,0.00,VWS V14.01,2013-04-09 12:21:00,
2013-04-09 05:26:00,44.1,26.1,29.97,East,91,7.6,7.6,49,0.00,,---,0.00,VWS V14.01,2013-04-09 12:26:00,
2013-04-09 05:32:00,43.9,26.0,30.00,East,91,7.6,7.6,49,0.00,,---,0.00,VWS V14.01,2013-04-09 12:32:00,
2013-04-09 05:38:00,43.9,26.0,30.00,East,91,7.6,7.6,49,0.00,,---,0.00,VWS V14.01,2013-04-09 12:38:00,
2013-04-09 05:43:00,43.9,26.0,30.00,East,91,7.6,7.6,49,0.00,,---,0.00,VWS V14.01,2013-04-09 12:43:00,
2013-04-09 05:48:00,43.7,25.8,29.97,East,91,7.6,7.6,49,0.00,,---,0.00,VWS V14.01,2013-04-09 12:48:00,
2013-04-09 05:54:00,43.9,26.0,29.97,East,91,7.6,7.6,49,0.00,,---,0.00,VWS V14.01,2013-04-09 12:54:00,
2013-04-09 06:00:00,43.7,25.8,29.97,East,91,7.6,7.6,49,0.00,,---,0.00,VWS V14.01,2013-04-09 13:00:00,
2013-04-09 06:05:00,43.7,25.3,29.97,East,91,7.6,7.6,48,0.00,,---,0.00,VWS V14.01,2013-04-09 13:05:00,
2013-04-09 06:11:00,43.7,25.3,29.97,East,91,7.6,7.6,48,0.00,,---,0.00,VWS V14.01,2013-04-09 13:11:00,
2013-04-09 06:16:00,43.7,25.8,29.97,East,91,7.6,7.6,49,0.00,,---,0.00,VWS V14.01,2013-04-09 13:16:00,
2013-04-09 06:21:00,43.5,25.6,29.97,East,91,7.6,7.6,49,0.00,,---,0.00,VWS V14.01,2013-04-09 13:21:00,
2013-04-09 06:26:00,43.3,26.4,29.97,East,91,7.6,7.6,51,0.00,,---,0.00,VWS V14.01,2013-04-09 13:26:00,
2013-04-09 06:31:00,43.3,26.9,29.97,East,91,7.6,7.6,52,0.00,,---,0.00,VWS V14.01,2013-04-09 13:31:00,
2013-04-09 06:37:00,43.3,27.8,29.97,East,91,7.6,7.6,54,0.00,,---,0.00,VWS V14.01,2013-04-09 13:37:00,
2013-04-09 06:42:00,43.3,27.8,29.97,East,91,7.6,7.6,54,0.00,,---,0.00,VWS V14.01,2013-04-09 13:42:00,
2013-04-09 06:47:00,43.3,27.4,30.00,East,91,7.6,7.6,53,0.00,,---,0.00,VWS V14.01,2013-04-09 13:47:00,
2013-04-09 06:52:00,43.5,26.6,30.00,East,91,7.6,7.6,51,0.00,,---,0.00,VWS V14.01,2013-04-09 13:52:00,
2013-04-09 06:58:00,43.7,26.3,30.00,East,91,7.6,7.6,50,0.00,,---,0.00,VWS V14.01,2013-04-09 13:58:00,
2013-04-09 07:04:00,44.1,26.1,30.00,East,91,7.6,7.6,49,0.00,,---,0.00,VWS V14.01,2013-04-09 14:04:00,
2013-04-09 07:10:00,44.2,26.3,30.00,East,91,7.6,7.6,49,0.00,,---,0.00,VWS V14.01,2013-04-09 14:10:00,
2013-04-09 07:16:00,44.2,26.3,30.00,East,91,7.6,7.6,49,0.00,,---,0.00,VWS V14.01,2013-04-09 14:16:00,
2013-04-09 07:21:00,44.2,26.3,30.00,East,91,7.6,7.6,49,0.00,,---,0.00,VWS V14.01,2013-04-09 14:21:00,
2013-04-09 07:28:00,44.1,26.1,30.00,East,91,7.6,7.6,49,0.00,,---,0.00,VWS V14.01,2013-04-09 14:28:00,
2013-04-09 07:34:00,44.1,26.6,30.00,East,91,7.6,7.6,50,0.00,,---,0.00,VWS V14.01,2013-04-09 14:34:00,
2013-04-09 07:40:00,44.2,27.3,30.00,East,91,7.6,7.6,51,0.00,,---,0.00,VWS V14.01,2013-04-09 14:40:00,
2013-04-09 07:45:00,44.4,27.4,30.00,East,91,7.6,7.6,51,0.00,,---,0.00,VWS V14.01,2013-04-09 14:45:00,
2013-04-09 07:51:00,44.6,27.1,30.00,East,91,7.6,7.6,50,0.00,,---,0.00,VWS V14.01,2013-04-09 14:51:00,
2013-04-09 07:56:00,44.8,26.8,30.00,East,91,7.6,7.6,49,0.00,,---,0.00,VWS V14.01,2013-04-09 14:56:00,
2013-04-09 08:02:00,45.1,27.1,30.00,East,91,7.6,7.6,49,0.00,,---,0.00,VWS V14.01,2013-04-09 15:02:00,
2013-04-09 08:07:00,45.1,27.1,30.00,East,91,7.6,7.6,49,0.00,,---,0.00,VWS V14.01,2013-04-09 15:07:00,
2013-04-09 08:13:00,45.1,27.1,30.00,East,91,7.6,7.6,49,0.00,,---,0.00,VWS V14.01,2013-04-09 15:13:00,
2013-04-09 08:18:00,45.5,27.5,30.00,East,91,7.6,7.6,49,0.00,,---,0.00,VWS V14.01,2013-04-09 15:18:00,
2013-04-09 08:26:00,45.9,27.8,30.00,East,91,7.6,7.6,49,0.00,,---,0.00,VWS V14.01,2013-04-09 15:26:00,
2013-04-09 08:32:00,46.2,27.6,30.00,East,91,7.6,7.6,48,0.00,,---,0.00,VWS V14.01,2013-04-09 15:32:00,
2013-04-09 08:38:00,46.4,27.3,30.00,East,91,7.6,7.6,47,0.00,,---,0.00,VWS V14.01,2013-04-09 15:38:00,
2013-04-09 08:44:00,46.6,27.5,30.00,East,91,7.6,7.6,47,0.00,,---,0.00,VWS V14.01,2013-04-09 15:44:00,
2013-04-09 08:50:00,46.9,27.3,30.00,East,91,7.6,7.6,46,0.00,,---,0.00,VWS V14.01,2013-04-09 15:50:00,
2013-04-09 08:55:00,47.7,26.8,30.00,East,91,7.6,7.6,44,0.00,,---,0.00,VWS V14.01,2013-04-09 15:55:00,
2013-04-09 09:00:00,48.6,27.1,29.97,East,91,7.6,7.6,43,0.00,,---,0.00,VWS V14.01,2013-04-09 16:00:00,
2013-04-09 09:05:00,48.9,24.5,29.97,East,91,7.6,7.6,38,0.00,,---,0.00,VWS V14.01,2013-04-09 16:05:00,
2013-04-09 09:10:00,49.3,24.1,29.97,East,91,7.6,7.6,37,0.00,,---,0.00,VWS V14.01,2013-04-09 16:10:00,
2013-04-09 09:16:00,49.6,24.5,29.97,East,91,7.6,7.6,37,0.00,,---,0.00,VWS V14.01,2013-04-09 16:16:00,
2013-04-09 09:22:00,49.8,24.6,29.97,East,91,7.6,7.6,37,0.00,,---,0.00,VWS V14.01,2013-04-09 16:22:00,
2013-04-09 09:27:00,49.5,24.3,29.97,East,91,7.6,7.6,37,0.00,,---,0.00,VWS V14.01,2013-04-09 16:27:00,
2013-04-09 09:33:00,49.8,24.6,30.00,East,91,7.6,7.6,37,0.00,,---,0.00,VWS V14.01,2013-04-09 16:33:00,
2013-04-09 09:38:00,50.0,24.8,30.00,East,91,7.6,7.6,37,0.00,,---,0.00,VWS V14.01,2013-04-09 16:38:00,
2013-04-09 09:44:00,50.2,22.9,30.00,East,91,7.6,7.6,34,0.00,,---,0.00,VWS V14.01,2013-04-09 16:44:00,
2013-04-09 09:49:00,50.0,22.8,30.00,East,91,7.6,7.6,34,0.00,,---,0.00,VWS V14.01,2013-04-09 16:49:00,
2013-04-09 09:55:00,49.8,23.3,30.00,East,91,7.6,7.6,35,0.00,,---,0.00,VWS V14.01,2013-04-09 16:55:00,
2013-04-09 10:00:00,50.0,22.8,30.00,East,91,7.6,7.6,34,0.00,,---,0.00,VWS V14.01,2013-04-09 17:00:00,
2013-04-09 10:06:00,49.8,23.3,30.00,East,91,7.6,7.6,35,0.00,,---,0.00,VWS V14.01,2013-04-09 17:06:00,
2013-04-09 10:12:00,50.0,22.8,30.00,East,91,7.6,7.6,34,0.00,,---,0.00,VWS V14.01,2013-04-09 17:12:00,
2013-04-09 10:17:00,50.2,22.9,30.00,East,91,7.6,7.6,34,0.00,,---,0.00,VWS V14.01,2013-04-09 17:17:00,
2013-04-09 10:23:00,50.0,22.0,30.00,East,91,7.6,7.6,33,0.00,,---,0.00,VWS V14.01,2013-04-09 17:23:00,
2013-04-09 10:28:00,50.2,22.2,30.00,East,91,7.6,7.6,33,0.00,,---,0.00,VWS V14.01,2013-04-09 17:28:00,
2013-04-09 10:35:00,50.0,22.0,30.00,East,91,7.6,7.6,33,0.00,,---,0.00,VWS V14.01,2013-04-09 17:35:00,
2013-04-09 10:40:00,50.4,22.4,30.00,East,91,7.6,7.6,33,0.00,,---,0.00,VWS V14.01,2013-04-09 17:40:00,
2013-04-09 10:46:00,51.1,22.3,30.00,East,91,7.6,7.6,32,0.00,,---,0.00,VWS V14.01,2013-04-09 17:46:00,
2013-04-09 10:52:00,51.4,22.6,30.00,East,91,7.6,7.6,32,0.00,,---,0.00,VWS V14.01,2013-04-09 17:52:00,
2013-04-09 10:57:00,51.3,22.4,30.00,East,91,7.6,7.6,32,0.00,,---,0.00,VWS V14.01,2013-04-09 17:57:00,
2013-04-09 11:03:00,51.1,21.5,30.00,East,91,7.6,7.6,31,0.00,,---,0.00,VWS V14.01,2013-04-09 18:03:00,
2013-04-09 11:08:00,50.9,21.4,30.00,East,91,7.6,7.6,31,0.00,,---,0.00,VWS V14.01,2013-04-09 18:08:00,
2013-04-09 11:13:00,50.5,21.0,30.00,East,91,7.6,7.6,31,0.00,,---,0.00,VWS V14.01,2013-04-09 18:13:00,
2013-04-09 11:19:00,50.4,21.6,30.00,East,91,7.6,7.6,32,0.00,,---,0.00,VWS V14.01,2013-04-09 18:19:00,
2013-04-09 11:25:00,50.2,21.5,30.00,East,91,7.6,7.6,32,0.00,,---,0.00,VWS V14.01,2013-04-09 18:25:00,
2013-04-09 11:30:00,50.2,21.5,30.00,East,91,7.6,7.6,32,0.00,,---,0.00,VWS V14.01,2013-04-09 18:30:00,
2013-04-09 11:36:00,50.5,21.8,30.00,East,91,7.6,7.6,32,0.00,,---,0.00,VWS V14.01,2013-04-09 18:36:00,
2013-04-09 11:41:00,50.7,22.0,30.00,East,91,7.6,7.6,32,0.00,,---,0.00,VWS V14.01,2013-04-09 18:41:00,
2013-04-09 11:46:00,50.5,21.0,30.00,East,91,7.6,7.6,31,0.00,,---,0.00,VWS V14.01,2013-04-09 18:46:00,
2013-04-09 11:52:00,51.1,21.5,30.00,East,91,7.6,7.6,31,0.00,,---,0.00,VWS V14.01,2013-04-09 18:52:00,
2013-04-09 11:58:00,51.3,21.7,30.00,East,91,7.6,7.6,31,0.00,,---,0.00,VWS V14.01,2013-04-09 18:58:00,
2013-04-09 12:03:00,52.0,21.5,30.00,East,91,7.6,7.6,30,0.00,,---,0.00,VWS V14.01,2013-04-09 19:03:00,
2013-04-09 12:09:00,53.1,21.7,30.00,East,91,7.6,7.6,29,0.00,,---,0.00,VWS V14.01,2013-04-09 19:09:00,
2013-04-09 12:15:00,53.8,21.5,30.00,East,91,7.6,7.6,28,0.00,,---,0.00,VWS V14.01,2013-04-09 19:15:00,
2013-04-09 12:20:00,53.8,21.5,30.00,East,91,7.6,7.6,28,0.00,,---,0.00,VWS V14.01,2013-04-09 19:20:00,
2013-04-09 12:25:00,54.5,21.2,30.00,East,91,7.6,7.6,27,0.00,,---,0.00,VWS V14.01,2013-04-09 19:25:00,
2013-04-09 12:31:00,54.3,21.1,30.00,East,91,7.6,7.6,27,0.00,,---,0.00,VWS V14.01,2013-04-09 19:31:00,
2013-04-09 12:37:00,53.8,20.6,30.00,East,91,7.6,7.6,27,0.00,,---,0.00,VWS V14.01,2013-04-09 19:37:00,
2013-04-09 12:43:00,53.6,20.5,30.00,East,91,7.6,7.6,27,0.00,,---,0.00,VWS V14.01,2013-04-09 19:43:00,
2013-04-09 12:48:00,53.4,21.1,30.00,East,91,7.6,7.6,28,0.00,,---,0.00,VWS V14.01,2013-04-09 19:48:00,
2013-04-09 12:53:00,52.9,20.7,30.00,East,91,7.6,7.6,28,0.00,,---,0.00,VWS V14.01,2013-04-09 19:53:00,
2013-04-09 12:59:00,52.7,20.5,30.00,East,91,7.6,7.6,28,0.00,,---,0.00,VWS V14.01,2013-04-09 19:59:00,
2013-04-09 13:05:00,52.5,20.4,30.00,East,91,7.6,7.6,28,0.00,,---,0.00,VWS V14.01,2013-04-09 20:05:00,
2013-04-09 13:11:00,52.5,20.4,30.00,East,91,7.6,7.6,28,0.00,,---,0.00,VWS V14.01,2013-04-09 20:11:00,
2013-04-09 13:16:00,52.3,19.4,30.00,East,91,7.6,7.6,27,0.00,,---,0.00,VWS V14.01,2013-04-09 20:16:00,
2013-04-09 13:21:00,52.5,19.5,30.00,East,91,7.6,7.6,27,0.00,,---,0.00,VWS V14.01,2013-04-09 20:21:00,
2013-04-09 13:27:00,52.5,20.4,30.00,East,91,7.6,7.6,28,0.00,,---,0.00,VWS V14.01,2013-04-09 20:27:00,
2013-04-09 13:32:00,52.5,20.4,30.00,East,91,7.6,7.6,28,0.00,,---,0.00,VWS V14.01,2013-04-09 20:32:00,
2013-04-09 13:38:00,52.7,20.5,30.00,East,91,7.6,7.6,28,0.00,,---,0.00,VWS V14.01,2013-04-09 20:38:00,
2013-04-09 13:44:00,53.2,21.0,30.00,East,91,7.6,7.6,28,0.00,,---,0.00,VWS V14.01,2013-04-09 20:44:00,
2013-04-09 13:50:00,53.6,20.5,30.00,East,91,7.6,7.6,27,0.00,,---,0.00,VWS V14.01,2013-04-09 20:50:00,
2013-04-09 13:55:00,54.0,20.8,30.00,East,91,7.6,7.6,27,0.00,,---,0.00,VWS V14.01,2013-04-09 20:55:00,
2013-04-09 14:01:00,53.6,20.5,30.00,East,91,7.6,7.6,27,0.00,,---,0.00,VWS V14.01,2013-04-09 21:01:00,
2013-04-09 14:07:00,53.4,20.3,30.00,East,91,7.6,7.6,27,0.00,,---,0.00,VWS V14.01,2013-04-09 21:07:00,
2013-04-09 14:13:00,53.4,20.3,30.00,East,91,7.6,7.6,27,0.00,,---,0.00,VWS V14.01,2013-04-09 21:13:00,
2013-04-09 14:18:00,53.2,20.1,29.97,East,91,7.6,7.6,27,0.00,,---,0.00,VWS V14.01,2013-04-09 21:18:00,
2013-04-09 14:23:00,52.9,19.8,29.97,East,91,7.6,7.6,27,0.00,,---,0.00,VWS V14.01,2013-04-09 21:23:00,
2013-04-09 14:29:00,52.9,19.8,29.97,East,91,7.6,7.6,27,0.00,,---,0.00,VWS V14.01,2013-04-09 21:29:00,
2013-04-09 14:34:00,52.9,19.8,29.97,East,91,7.6,7.6,27,0.00,,---,0.00,VWS V14.01,2013-04-09 21:34:00,
2013-04-09 14:40:00,52.7,19.7,29.97,East,91,7.6,7.6,27,0.00,,---,0.00,VWS V14.01,2013-04-09 21:40:00,
2013-04-09 14:45:00,52.9,19.8,29.97,East,91,7.6,7.6,27,0.00,,---,0.00,VWS V14.01,2013-04-09 21:45:00,
2013-04-09 14:50:00,52.9,19.8,29.97,East,91,7.6,7.6,27,0.00,,---,0.00,VWS V14.01,2013-04-09 21:50:00,
2013-04-09 14:56:00,53.1,20.0,29.97,East,91,7.6,7.6,27,0.00,,---,0.00,VWS V14.01,2013-04-09 21:56:00,
2013-04-09 15:01:00,53.2,20.1,29.97,East,91,7.6,7.6,27,0.00,,---,0.00,VWS V14.01,2013-04-09 22:01:00,
2013-04-09 15:06:00,53.4,20.3,29.97,East,91,7.6,7.6,27,0.00,,---,0.00,VWS V14.01,2013-04-09 22:06:00,
2013-04-09 15:11:00,53.6,20.5,29.97,East,91,7.6,7.6,27,0.00,,---,0.00,VWS V14.01,2013-04-09 22:11:00,
2013-04-09 15:17:00,54.3,21.1,29.97,East,91,7.6,7.6,27,0.00,,---,0.00,VWS V14.01,2013-04-09 22:17:00,
2013-04-09 15:23:00,55.0,21.7,29.97,East,91,7.6,7.6,27,0.00,,---,0.00,VWS V14.01,2013-04-09 22:23:00,
2013-04-09 15:28:00,54.9,20.6,29.97,East,91,7.6,7.6,26,0.00,,---,0.00,VWS V14.01,2013-04-09 22:28:00,
2013-04-09 15:33:00,54.7,20.5,29.97,East,91,7.6,7.6,26,0.00,,---,0.00,VWS V14.01,2013-04-09 22:33:00,
2013-04-09 15:40:00,54.3,21.1,29.97,East,91,7.6,7.6,27,0.00,,---,0.00,VWS V14.01,2013-04-09 22:40:00,
2013-04-09 15:46:00,54.0,20.8,29.97,East,91,7.6,7.6,27,0.00,,---,0.00,VWS V14.01,2013-04-09 22:46:00,
2013-04-09 15:51:00,54.1,20.9,29.97,East,91,7.6,7.6,27,0.00,,---,0.00,VWS V14.01,2013-04-09 22:51:00,
2013-04-09 15:57:00,54.1,20.0,29.97,East,91,7.6,7.6,26,0.00,,---,0.00,VWS V14.01,2013-04-09 22:57:00,
2013-04-09 16:03:00,54.0,20.8,29.94,East,91,7.6,7.6,27,0.00,,---,0.00,VWS V14.01,2013-04-09 23:03:00,
2013-04-09 16:08:00,53.6,20.5,29.94,East,91,7.6,7.6,27,0.00,,---,0.00,VWS V14.01,2013-04-09 23:08:00,
2013-04-09 16:13:00,53.6,20.5,29.94,East,91,7.6,7.6,27,0.00,,---,0.00,VWS V14.01,2013-04-09 23:13:00,
2013-04-09 16:19:00,53.6,20.5,29.94,East,91,7.6,7.6,27,0.00,,---,0.00,VWS V14.01,2013-04-09 23:19:00,
2013-04-09 16:25:00,54.0,19.9,29.94,East,91,7.6,7.6,26,0.00,,---,0.00,VWS V14.01,2013-04-09 23:25:00,
2013-04-09 16:30:00,54.0,19.9,29.94,East,91,7.6,7.6,26,0.00,,---,0.00,VWS V14.01,2013-04-09 23:30:00,
2013-04-09 16:36:00,53.8,19.7,29.94,East,91,7.6,7.6,26,0.00,,---,0.00,VWS V14.01,2013-04-09 23:36:00,
2013-04-09 16:42:00,53.6,19.6,29.94,East,91,7.6,7.6,26,0.00,,---,0.00,VWS V14.01,2013-04-09 23:42:00,
2013-04-09 16:48:00,53.4,20.3,29.94,East,91,7.6,7.6,27,0.00,,---,0.00,VWS V14.01,2013-04-09 23:48:00,
2013-04-09 16:54:00,53.8,19.7,29.94,East,91,7.6,7.6,26,0.00,,---,0.00,VWS V14.01,2013-04-09 23:54:00,
2013-04-09 16:59:00,54.1,20.0,29.94,East,91,7.6,7.6,26,0.00,,---,0.00,VWS V14.01,2013-04-09 23:59:00,
2013-04-09 17:05:00,54.1,20.0,29.94,East,91,7.6,7.6,26,0.00,,---,0.00,VWS V14.01,2013-04-10 00:05:00,
2013-04-09 17:10:00,54.0,19.9,29.94,East,91,7.6,7.6,26,0.00,,---,0.00,VWS V14.01,2013-04-10 00:10:00,
2013-04-09 17:16:00,53.8,20.6,29.94,East,91,7.6,7.6,27,0.00,,---,0.00,VWS V14.01,2013-04-10 00:16:00,
2013-04-09 17:21:00,53.6,20.5,29.94,East,91,7.6,7.6,27,0.00,,---,0.00,VWS V14.01,2013-04-10 00:21:00,
2013-04-09 17:26:00,53.4,20.3,29.94,East,91,7.6,7.6,27,0.00,,---,0.00,VWS V14.01,2013-04-10 00:26:00,
2013-04-09 17:32:00,53.4,20.3,29.94,East,91,7.6,7.6,27,0.00,,---,0.00,VWS V14.01,2013-04-10 00:32:00,
2013-04-09 17:38:00,53.4,20.3,29.94,East,91,7.6,7.6,27,0.00,,---,0.00,VWS V14.01,2013-04-10 00:38:00,
2013-04-09 17:43:00,53.2,20.1,29.94,East,91,7.6,7.6,27,0.00,,---,0.00,VWS V14.01,2013-04-10 00:43:00,
2013-04-09 17:49:00,53.1,20.8,29.94,East,91,7.6,7.6,28,0.00,,---,0.00,VWS V14.01,2013-04-10 00:49:00,
2013-04-09 17:55:00,52.7,20.5,29.94,East,91,7.6,7.6,28,0.00,,---,0.00,VWS V14.01,2013-04-10 00:55:00,
2013-04-09 18:00:00,52.7,20.5,29.94,East,91,7.6,7.6,28,0.00,,---,0.00,VWS V14.01,2013-04-10 01:00:00,
2013-04-09 18:07:00,52.5,20.4,29.94,East,91,7.6,7.6,28,0.00,,---,0.00,VWS V14.01,2013-04-10 01:07:00,
2013-04-09 18:12:00,52.7,20.5,29.94,East,91,7.6,7.6,28,0.00,,---,0.00,VWS V14.01,2013-04-10 01:12:00,
2013-04-09 18:18:00,52.7,20.5,29.94,East,91,7.6,7.6,28,0.00,,---,0.00,VWS V14.01,2013-04-10 01:18:00,
2013-04-09 18:24:00,52.5,20.4,29.94,East,91,7.6,7.6,28,0.00,,---,0.00,VWS V14.01,2013-04-10 01:24:00,
2013-04-09 18:29:00,52.5,20.4,29.94,East,91,7.6,7.6,28,0.00,,---,0.00,VWS V14.01,2013-04-10 01:29:00,
2013-04-09 18:35:00,52.5,21.2,29.94,East,91,7.6,7.6,29,0.00,,---,0.00,VWS V14.01,2013-04-10 01:35:00,
2013-04-09 18:40:00,52.3,21.0,29.94,East,91,7.6,7.6,29,0.00,,---,0.00,VWS V14.01,2013-04-10 01:40:00,
2013-04-09 18:46:00,52.3,21.0,29.91,East,91,7.6,7.6,29,0.00,,---,0.00,VWS V14.01,2013-04-10 01:46:00,
2013-04-09 18:52:00,52.2,20.9,29.91,East,91,7.6,7.6,29,0.00,,---,0.00,VWS V14.01,2013-04-10 01:52:00,
2013-04-09 18:57:00,52.2,20.9,29.91,East,91,7.6,7.6,29,0.00,,---,0.00,VWS V14.01,2013-04-10 01:57:00,
2013-04-09 19:02:00,52.0,20.7,29.91,East,91,7.6,7.6,29,0.00,,---,0.00,VWS V14.01,2013-04-10 02:02:00,
2013-04-09 19:08:00,52.0,20.7,29.91,East,91,7.6,7.6,29,0.00,,---,0.00,VWS V14.01,2013-04-10 02:08:00,
2013-04-09 19:13:00,52.0,21.5,29.91,East,91,7.6,7.6,30,0.00,,---,0.00,VWS V14.01,2013-04-10 02:13:00,
2013-04-09 19:19:00,52.0,21.5,29.91,East,91,7.6,7.6,30,0.00,,---,0.00,VWS V14.01,2013-04-10 02:19:00,
2013-04-09 19:25:00,52.0,21.5,29.91,East,91,7.6,7.6,30,0.00,,---,0.00,VWS V14.01,2013-04-10 02:25:00,
2013-04-09 19:30:00,51.8,21.4,29.91,East,91,7.6,7.6,30,0.00,,---,0.00,VWS V14.01,2013-04-10 02:30:00,
2013-04-09 19:36:00,51.8,21.4,29.91,East,91,7.6,7.6,30,0.00,,---,0.00,VWS V14.01,2013-04-10 02:36:00,
2013-04-09 19:41:00,51.8,22.1,29.91,East,91,7.6,7.6,31,0.00,,---,0.00,VWS V14.01,2013-04-10 02:41:00,
2013-04-09 19:46:00,51.8,22.1,29.91,East,91,7.6,7.6,31,0.00,,---,0.00,VWS V14.01,2013-04-10 02:46:00,
2013-04-09 19:52:00,51.8,22.1,29.91,East,91,7.6,7.6,31,0.00,,---,0.00,VWS V14.01,2013-04-10 02:52:00,
2013-04-09 19:58:00,51.8,22.1,29.91,East,91,7.6,7.6,31,0.00,,---,0.00,VWS V14.01,2013-04-10 02:58:00,
2013-04-09 20:03:00,51.8,22.1,29.91,East,91,7.6,7.6,31,0.00,,---,0.00,VWS V14.01,2013-04-10 03:03:00,
2013-04-09 20:08:00,51.8,22.1,29.91,East,91,7.6,7.6,31,0.00,,---,0.00,VWS V14.01,2013-04-10 03:08:00,
2013-04-09 20:14:00,51.8,22.1,29.91,East,91,7.6,7.6,31,0.00,,---,0.00,VWS V14.01,2013-04-10 03:14:00,
2013-04-09 20:19:00,51.8,22.1,29.91,East,91,7.6,7.6,31,0.00,,---,0.00,VWS V14.01,2013-04-10 03:19:00,
2013-04-09 20:24:00,51.6,22.7,29.91,East,91,7.6,7.6,32,0.00,,---,0.00,VWS V14.01,2013-04-10 03:24:00,
2013-04-09 20:29:00,51.6,22.7,29.91,East,91,7.6,7.6,32,0.00,,---,0.00,VWS V14.01,2013-04-10 03:29:00,
2013-04-09 20:34:00,51.6,22.7,29.91,East,91,7.6,7.6,32,0.00,,---,0.00,VWS V14.01,2013-04-10 03:34:00,
2013-04-09 20:39:00,51.6,22.7,29.91,East,91,7.6,7.6,32,0.00,,---,0.00,VWS V14.01,2013-04-10 03:39:00,
2013-04-09 20:45:00,51.6,22.7,29.91,East,91,7.6,7.6,32,0.00,,---,0.00,VWS V14.01,2013-04-10 03:45:00,
2013-04-09 20:50:00,51.6,22.7,29.91,East,91,7.6,7.6,32,0.00,,---,0.00,VWS V14.01,2013-04-10 03:50:00,
2013-04-09 20:55:00,51.6,22.7,29.91,East,91,7.6,7.6,32,0.00,,---,0.00,VWS V14.01,2013-04-10 03:55:00,
2013-04-09 21:00:00,51.6,23.5,29.88,East,91,7.6,7.6,33,0.00,,---,0.00,VWS V14.01,2013-04-10 04:00:00,
2013-04-09 21:01:00,51.6,23.5,29.88,East,91,7.6,7.6,33,0.00,,---,0.00,VWS V14.01,2013-04-10 04:01:00,
2013-04-09 21:05:00,51.3,23.9,29.88,East,91,7.6,7.6,34,0.00,,---,0.00,VWS V14.01,2013-04-10 04:05:00,
2013-04-09 21:08:00,51.1,24.4,29.88,East,91,7.6,7.6,35,0.00,,---,0.00,VWS V14.01,2013-04-10 04:08:00,
2013-04-09 21:14:00,50.9,24.2,29.88,East,91,7.6,7.6,35,0.00,,---,0.00,VWS V14.01,2013-04-10 04:14:00,
2013-04-09 21:19:00,51.1,24.4,29.88,East,91,7.6,7.6,35,0.00,,---,0.00,VWS V14.01,2013-04-10 04:19:00,
2013-04-09 21:24:00,51.1,24.4,29.88,East,91,7.6,7.6,35,0.00,,---,0.00,VWS V14.01,2013-04-10 04:24:00,
2013-04-09 21:30:00,51.3,24.6,29.88,East,91,7.6,7.6,35,0.00,,---,0.00,VWS V14.01,2013-04-10 04:30:00,
2013-04-09 21:35:00,51.3,24.6,29.88,East,91,7.6,7.6,35,0.00,,---,0.00,VWS V14.01,2013-04-10 04:35:00,
2013-04-09 21:40:00,51.3,24.6,29.88,East,91,7.6,7.6,35,0.00,,---,0.00,VWS V14.01,2013-04-10 04:40:00,
2013-04-09 21:45:00,51.3,24.6,29.88,East,91,7.6,7.6,35,0.00,,---,0.00,VWS V14.01,2013-04-10 04:45:00,
2013-04-09 21:52:00,51.3,24.6,29.88,East,91,7.6,7.6,35,0.00,,---,0.00,VWS V14.01,2013-04-10 04:52:00,
2013-04-09 21:58:00,51.4,24.0,29.88,East,91,7.6,7.6,34,0.00,,---,0.00,VWS V14.01,2013-04-10 04:58:00,
2013-04-09 22:03:00,51.4,24.0,29.88,East,91,7.6,7.6,34,0.00,,---,0.00,VWS V14.01,2013-04-10 05:03:00,
2013-04-09 22:09:00,51.4,24.7,29.88,East,91,7.6,7.6,35,0.00,,---,0.00,VWS V14.01,2013-04-10 05:09:00,
2013-04-09 22:14:00,51.4,24.7,29.88,East,91,7.6,7.6,35,0.00,,---,0.00,VWS V14.01,2013-04-10 05:14:00,
2013-04-09 22:20:00,51.3,25.2,29.88,East,91,7.6,7.6,36,0.00,,---,0.00,VWS V14.01,2013-04-10 05:20:00,
2013-04-09 22:25:00,51.1,25.1,29.88,East,91,7.6,7.6,36,0.00,,---,0.00,VWS V14.01,2013-04-10 05:25:00,
2013-04-09 22:30:00,50.9,25.6,29.88,East,91,7.6,7.6,37,0.00,,---,0.00,VWS V14.01,2013-04-10 05:30:00,
2013-04-09 22:35:00,50.7,25.4,29.88,East,91,7.6,7.6,37,0.00,,---,0.00,VWS V14.01,2013-04-10 05:35:00,
2013-04-09 22:41:00,50.5,25.9,29.88,East,91,7.6,7.6,38,0.00,,---,0.00,VWS V14.01,2013-04-10 05:41:00,
2013-04-09 22:47:00,50.5,25.9,29.88,East,91,7.6,7.6,38,0.00,,---,0.00,VWS V14.01,2013-04-10 05:47:00,
2013-04-09 22:53:00,50.5,25.9,29.88,East,91,7.6,7.6,38,0.00,,---,0.00,VWS V14.01,2013-04-10 05:53:00,
2013-04-09 22:59:00,50.5,25.2,29.88,East,91,7.6,7.6,37,0.00,,---,0.00,VWS V14.01,2013-04-10 05:59:00,
2013-04-09 23:04:00,50.9,24.9,29.88,East,91,7.6,7.6,36,0.00,,---,0.00,VWS V14.01,2013-04-10 06:04:00,
2013-04-09 23:10:00,51.4,24.7,29.88,East,91,7.6,7.6,35,0.00,,---,0.00,VWS V14.01,2013-04-10 06:10:00,
2013-04-09 23:15:00,51.8,24.3,29.88,East,91,7.6,7.6,34,0.00,,---,0.00,VWS V14.01,2013-04-10 06:15:00,
2013-04-09 23:20:00,52.0,23.8,29.88,East,91,7.6,7.6,33,0.00,,---,0.00,VWS V14.01,2013-04-10 06:20:00,
2013-04-09 23:25:00,52.0,23.8,29.88,East,91,7.6,7.6,33,0.00,,---,0.00,VWS V14.01,2013-04-10 06:25:00,
2013-04-09 23:32:00,52.0,23.8,29.85,East,91,7.6,7.6,33,0.00,,---,0.00,VWS V14.01,2013-04-10 06:32:00,
2013-04-09 23:37:00,52.0,23.1,29.85,East,91,7.6,7.6,32,0.00,,---,0.00,VWS V14.01,2013-04-10 06:37:00,
2013-04-09 23:43:00,52.0,23.8,29.85,East,91,7.6,7.6,33,0.00,,---,0.00,VWS V14.01,2013-04-10 06:43:00,
2013-04-09 23:48:00,51.6,24.2,29.85,East,91,7.6,7.6,34,0.00,,---,0.00,VWS V14.01,2013-04-10 06:48:00,
2013-04-09 23:53:00,51.6,24.2,29.85,East,91,7.6,7.6,34,0.00,,---,0.00,VWS V14.01,2013-04-10 06:53:00,
2013-04-09 23:58:00,51.6,24.2,29.85,East,91,7.6,7.6,34,0.00,,---,0.00,VWS V14.01,2013-04-10 06:58:00,